createdAt,value
2023-03-05T00:01:27.403Z,99061.95
2023-03-05T00:04:29.068Z,99059.59
2023-03-05T00:07:31.784Z,99063.70
2023-03-05T00:10:33.408Z,99066.42
2023-03-05T00:13:35.925Z,99061.70
2023-03-05T00:16:37.600Z,99061.54
2023-03-05T00:19:39.148Z,99063.27
2023-03-05T00:22:40.820Z,99063.98
2023-03-05T00:25:42.856Z,99061.61
2023-03-05T00:28:44.455Z,99058.58
2023-03-05T00:31:46.127Z,99059.45
2023-03-05T00:34:47.702Z,99052.69
2023-03-05T00:37:53.105Z,99046.94
2023-03-05T00:40:54.707Z,99043.08
2023-03-05T00:43:56.238Z,99037.50
2023-03-05T00:46:57.819Z,99034.30
2023-03-05T00:49:59.345Z,99028.53
2023-03-05T00:53:00.895Z,99030.09
2023-03-05T00:56:02.494Z,99026.86
2023-03-05T00:59:04.161Z,99021.42
2023-03-05T01:02:06.231Z,99025.70
2023-03-05T01:05:07.981Z,99024.70
2023-03-05T01:08:09.793Z,99024.90
2023-03-05T01:11:12.175Z,99027.15
2023-03-05T01:14:14.486Z,99021.39
2023-03-05T01:17:16.461Z,99020.75
2023-03-05T01:20:19.931Z,99021.14
2023-03-05T01:23:21.722Z,99019.96
2023-03-05T01:26:23.319Z,99025.60
2023-03-05T01:29:27.225Z,99025.11
2023-03-05T01:32:28.788Z,99025.98
2023-03-05T01:35:30.550Z,99027.02
2023-03-05T01:38:32.136Z,99030.45
2023-03-05T01:41:34.222Z,99030.77
2023-03-05T01:44:35.941Z,99029.92
2023-03-05T01:47:38.454Z,99028.09
2023-03-05T01:50:40.033Z,99030.30
2023-03-05T01:53:41.897Z,99027.92
2023-03-05T01:56:43.748Z,99022.67
2023-03-05T01:59:46.123Z,99028.81
2023-03-05T02:02:49.612Z,99022.05
2023-03-05T02:05:51.283Z,99021.38
2023-03-05T02:08:52.893Z,99023.77
2023-03-05T02:11:54.892Z,99019.20
2023-03-05T02:14:56.449Z,99017.69
2023-03-05T02:17:58.407Z,99021.29
2023-03-05T02:21:03.029Z,99017.40
2023-03-05T02:24:05.093Z,99017.23
2023-03-05T02:27:07.467Z,99015.19
2023-03-05T02:30:09.601Z,99008.21
2023-03-05T02:33:14.079Z,99008.55
2023-03-05T02:36:16.040Z,99007.52
2023-03-05T02:39:17.925Z,99005.33
2023-03-05T02:42:19.790Z,99003.98
2023-03-05T02:45:21.394Z,98998.71
2023-03-05T02:48:23.082Z,98998.73
2023-03-05T02:51:24.847Z,99000.77
2023-03-05T02:54:26.362Z,99000.26
2023-03-05T02:57:28.026Z,98995.85
2023-03-05T03:00:29.631Z,98993.81
2023-03-05T03:03:31.449Z,98990.77
2023-03-05T03:06:33.193Z,98989.95
2023-03-05T03:09:34.828Z,98990.32
2023-03-05T03:12:41.032Z,98988.86
2023-03-05T03:15:42.568Z,98990.91
2023-03-05T03:18:44.210Z,98990.77
2023-03-05T03:21:45.774Z,98990.05
2023-03-05T03:24:47.629Z,98988.36
2023-03-05T03:27:49.352Z,98983.43
2023-03-05T03:30:50.959Z,98985.52
2023-03-05T03:33:52.534Z,98986.20
2023-03-05T03:36:54.196Z,98983.34
2023-03-05T03:39:56.169Z,98979.94
2023-03-05T03:42:57.757Z,98981.81
2023-03-05T03:45:59.651Z,98977.05
2023-03-05T03:49:01.585Z,98978.44
2023-03-05T03:52:03.374Z,98975.08
2023-03-05T03:55:05.311Z,98967.11
2023-03-05T03:58:07.384Z,98965.61
2023-03-05T04:01:08.917Z,98957.98
2023-03-05T04:04:12.461Z,98955.77
2023-03-05T04:07:14.339Z,98954.77
2023-03-05T04:10:15.968Z,98947.13
2023-03-05T04:13:17.659Z,98947.13
2023-03-05T04:16:19.362Z,98947.98
2023-03-05T04:19:21.094Z,98943.91
2023-03-05T04:22:23.281Z,98944.26
2023-03-05T04:25:24.914Z,98940.02
2023-03-05T04:28:26.559Z,98937.13
2023-03-05T04:31:28.269Z,98938.32
2023-03-05T04:34:29.828Z,98937.33
2023-03-05T04:37:31.508Z,98938.60
2023-03-05T04:40:33.442Z,98935.71
2023-03-05T04:43:35.101Z,98931.61
2023-03-05T04:46:36.639Z,98928.82
2023-03-05T04:49:38.200Z,98927.89
2023-03-05T04:52:44.298Z,98928.45
2023-03-05T04:55:45.890Z,98924.92
2023-03-05T04:58:47.541Z,98923.92
2023-03-05T05:01:49.160Z,98923.95
2023-03-05T05:04:54.433Z,98922.08
2023-03-05T05:07:57.549Z,98923.45
2023-03-05T05:11:05.112Z,98926.23
2023-03-05T05:14:06.933Z,98932.21
2023-03-05T05:17:09.212Z,98929.29
2023-03-05T05:20:12.507Z,98931.77
2023-03-05T05:23:14.162Z,98927.33
2023-03-05T05:26:15.717Z,98918.80
2023-03-05T05:29:17.324Z,98911.48
2023-03-05T05:32:20.731Z,98905.52
2023-03-05T05:35:22.643Z,98901.69
2023-03-05T05:38:24.190Z,98896.71
2023-03-05T05:41:25.781Z,98898.05
2023-03-05T05:44:27.810Z,98898.88
2023-03-05T05:47:29.534Z,98902.92
2023-03-05T05:50:31.313Z,98903.41
2023-03-05T05:53:32.825Z,98904.23
2023-03-05T05:56:34.426Z,98898.09
2023-03-05T05:59:35.991Z,98897.90
2023-03-05T06:02:39.416Z,98895.70
2023-03-05T06:05:42.418Z,98903.02
2023-03-05T06:08:44.114Z,98906.42
2023-03-05T06:11:45.716Z,98909.96
2023-03-05T06:14:47.338Z,98909.09
2023-03-05T06:17:48.970Z,98910.95
2023-03-05T06:21:05.798Z,98919.23
2023-03-05T06:24:07.586Z,98921.59
2023-03-05T06:27:09.032Z,98927.86
2023-03-05T06:30:11.770Z,98929.21
2023-03-05T06:33:13.813Z,98930.58
2023-03-05T06:36:17.720Z,98925.30
2023-03-05T06:39:19.535Z,98926.31
2023-03-05T06:42:21.005Z,98922.73
2023-03-05T06:45:22.612Z,98922.03
2023-03-05T06:48:24.268Z,98916.75
2023-03-05T06:51:34.262Z,98909.59
2023-03-05T06:54:35.989Z,98904.70
2023-03-05T06:57:37.652Z,98902.13
2023-03-05T07:00:39.214Z,98900.09
2023-03-05T07:03:41.595Z,98899.57
2023-03-05T07:06:43.798Z,98896.82
2023-03-05T07:09:45.490Z,98894.91
2023-03-05T07:12:47.222Z,98898.93
2023-03-05T07:15:49.135Z,98899.70
2023-03-05T07:18:50.946Z,98901.45
2023-03-05T07:21:52.474Z,98903.06
2023-03-05T07:24:54.069Z,98898.73
2023-03-05T07:27:56.523Z,98894.77
2023-03-05T07:31:00.228Z,98892.98
2023-03-05T07:34:02.757Z,98889.00
2023-03-05T07:37:04.467Z,98888.73
2023-03-05T07:40:06.858Z,98888.34
2023-03-05T07:43:08.876Z,98887.23
2023-03-05T07:46:11.923Z,98883.59
2023-03-05T07:49:13.643Z,98877.19
2023-03-05T07:52:15.453Z,98869.45
2023-03-05T07:55:17.296Z,98865.98
2023-03-05T07:58:18.870Z,98862.84
2023-03-05T08:01:20.498Z,98857.86
2023-03-05T08:04:22.154Z,98849.77
2023-03-05T08:07:24.048Z,98844.23
2023-03-05T08:10:25.681Z,98839.86
2023-03-05T08:13:27.285Z,98831.92
2023-03-05T08:16:28.922Z,98831.25
2023-03-05T08:19:30.570Z,98826.59
2023-03-05T08:22:35.390Z,98832.95
2023-03-05T08:25:36.931Z,98837.92
2023-03-05T08:28:38.535Z,98834.45
2023-03-05T08:31:40.126Z,98835.04
2023-03-05T08:34:41.820Z,98840.90
2023-03-05T08:37:43.393Z,98841.38
2023-03-05T08:40:44.937Z,98838.24
2023-03-05T08:43:46.489Z,98838.15
2023-03-05T08:46:48.149Z,98833.95
2023-03-05T08:49:49.880Z,98835.62
2023-03-05T08:52:51.458Z,98829.92
2023-03-05T08:55:59.157Z,98831.77
2023-03-05T08:59:01.741Z,98828.98
2023-03-05T09:05:04.061Z,98823.85
2023-03-05T09:08:05.759Z,98822.23
2023-03-05T09:11:07.710Z,98824.14
2023-03-05T09:14:10.366Z,98821.31
2023-03-05T09:17:11.949Z,98822.11
2023-03-05T09:20:13.998Z,98826.67
2023-03-05T09:23:15.573Z,98823.63
2023-03-05T09:26:17.749Z,98819.75
2023-03-05T09:29:19.417Z,98817.67
2023-03-05T09:32:21.135Z,98809.95
2023-03-05T09:35:22.811Z,98812.16
2023-03-05T09:38:24.618Z,98810.55
2023-03-05T09:41:54.181Z,98804.29
2023-03-05T09:45:04.103Z,98806.70
2023-03-05T09:48:24.463Z,98803.20
2023-03-05T09:51:30.009Z,98801.50
2023-03-05T09:54:41.328Z,98799.52
2023-03-05T09:57:45.925Z,98788.70
2023-03-05T10:00:50.642Z,98786.14
2023-03-05T10:03:56.209Z,98785.33
2023-03-05T10:06:57.750Z,98778.89
2023-03-05T10:10:02.991Z,98774.36
2023-03-05T10:13:29.161Z,98767.73
2023-03-05T10:16:58.337Z,98759.83
2023-03-05T10:20:21.805Z,98757.84
2023-03-05T10:23:30.826Z,98757.02
2023-03-05T10:26:44.409Z,98753.48
2023-03-05T10:30:30.930Z,98753.39
2023-03-05T10:33:51.387Z,98747.85
2023-03-05T10:37:02.120Z,98743.79
2023-03-05T10:40:11.101Z,98742.77
2023-03-05T10:43:31.196Z,98737.79
2023-03-05T10:46:36.202Z,98732.77
2023-03-05T10:49:42.279Z,98729.15
2023-03-05T10:52:44.341Z,98730.31
2023-03-05T10:55:45.868Z,98729.77
2023-03-05T10:58:47.440Z,98724.13
2023-03-05T11:02:01.689Z,98719.95
2023-03-05T11:05:05.188Z,98713.80
2023-03-05T11:08:35.295Z,98713.16
2023-03-05T11:11:36.934Z,98709.64
2023-03-05T11:14:42.132Z,98703.81
2023-03-05T11:17:48.451Z,98696.93
2023-03-05T11:20:50.718Z,98689.69
2023-03-05T11:24:14.013Z,98690.16
2023-03-05T11:27:30.804Z,98682.70
2023-03-05T11:30:35.376Z,98679.84
2023-03-05T11:33:37.480Z,98680.41
2023-03-05T11:36:41.133Z,98675.49
2023-03-05T11:39:45.373Z,98671.39
2023-03-05T11:42:54.532Z,98671.21
2023-03-05T11:46:03.004Z,98665.23
2023-03-05T11:49:05.697Z,98667.41
2023-03-05T11:52:27.209Z,98662.73
2023-03-05T11:55:38.215Z,98662.78
2023-03-05T11:58:46.755Z,98654.60
2023-03-05T12:01:51.899Z,98653.48
2023-03-05T12:04:53.668Z,98657.43
2023-03-05T12:08:01.225Z,98660.41
2023-03-05T12:11:18.658Z,98674.11
2023-03-05T12:14:26.416Z,98679.02
2023-03-05T12:17:32.118Z,98678.77
2023-03-05T12:21:04.804Z,98676.21
2023-03-05T12:24:27.533Z,98672.20
2023-03-05T12:27:36.291Z,98669.00
2023-03-05T12:30:37.812Z,98667.30
2023-03-05T12:33:41.129Z,98661.83
2023-03-05T12:36:42.666Z,98662.56
2023-03-05T12:39:44.308Z,98658.30
2023-03-05T12:43:28.548Z,98656.35
2023-03-05T12:46:30.794Z,98660.59
2023-03-05T12:49:39.185Z,98654.34
2023-03-05T12:52:42.458Z,98654.77
2023-03-05T12:55:44.137Z,98651.23
2023-03-05T12:58:49.894Z,98646.61
2023-03-05T13:01:58.835Z,98649.23
2023-03-05T13:05:04.833Z,98648.80
2023-03-05T13:08:22.253Z,98643.06
2023-03-05T13:11:23.856Z,98645.00
2023-03-05T13:14:31.142Z,98647.06
2023-03-05T13:17:37.698Z,98641.95
2023-03-05T13:20:41.118Z,98640.08
2023-03-05T13:23:48.976Z,98643.56
2023-03-05T13:26:50.524Z,98635.86
2023-03-05T13:29:52.602Z,98634.19
2023-03-05T13:32:59.436Z,98632.86
2023-03-05T13:36:01.791Z,98632.41
2023-03-05T13:39:03.768Z,98632.16
2023-03-05T13:42:15.829Z,98623.54
2023-03-05T13:45:29.780Z,98623.77
2023-03-05T13:48:31.462Z,98618.33
2023-03-05T13:51:43.538Z,98621.46
2023-03-05T13:54:45.645Z,98620.06
2023-03-05T13:57:50.273Z,98619.31
2023-03-05T14:01:03.240Z,98618.23
2023-03-05T14:04:19.265Z,98614.21
2023-03-05T14:07:38.989Z,98611.23
2023-03-05T14:10:40.795Z,98609.86
2023-03-05T14:13:43.387Z,98603.19
2023-03-05T14:16:44.958Z,98599.33
2023-03-05T14:19:46.582Z,98601.20
2023-03-05T14:22:49.520Z,98590.81
2023-03-05T14:25:51.285Z,98593.34
2023-03-05T14:28:57.340Z,98589.40
2023-03-05T14:32:07.555Z,98588.90
2023-03-05T14:35:17.989Z,98591.76
2023-03-05T14:38:22.598Z,98585.31
2023-03-05T14:41:41.462Z,98582.95
2023-03-05T14:44:43.054Z,98584.48
2023-03-05T14:47:45.282Z,98587.09
2023-03-05T14:50:54.094Z,98582.63
2023-03-05T14:53:56.876Z,98579.03
2023-03-05T14:56:58.495Z,98567.73
2023-03-05T15:00:00.061Z,98570.41
2023-03-05T15:03:01.725Z,98570.77
2023-03-05T15:06:03.577Z,98570.70
2023-03-05T15:09:06.206Z,98571.89
2023-03-05T15:12:08.590Z,98579.60
2023-03-05T15:15:13.955Z,98583.08
2023-03-05T15:18:18.419Z,98579.47
2023-03-05T15:21:20.091Z,98579.91
2023-03-05T15:24:21.766Z,98582.58
2023-03-05T15:27:23.656Z,98577.83
2023-03-05T15:30:29.500Z,98576.65
2023-03-05T15:33:34.631Z,98577.59
2023-03-05T15:36:36.225Z,98579.77
2023-03-05T15:39:37.834Z,98580.05
2023-03-05T15:42:39.917Z,98583.21
2023-03-05T15:45:41.564Z,98586.04
2023-03-05T15:48:44.204Z,98587.91
2023-03-05T15:51:45.886Z,98585.88
2023-03-05T15:54:47.507Z,98584.19
2023-03-05T15:57:50.673Z,98578.72
2023-03-05T16:00:52.510Z,98579.33
2023-03-05T16:03:54.140Z,98578.05
2023-03-05T16:06:56.938Z,98572.36
2023-03-05T16:09:58.542Z,98562.05
2023-03-05T16:13:08.213Z,98567.41
2023-03-05T16:16:09.990Z,98576.58
2023-03-05T16:19:13.903Z,98580.55
2023-03-05T16:22:15.969Z,98580.16
2023-03-05T16:25:17.823Z,98578.02
2023-03-05T16:28:19.461Z,98580.03
2023-03-05T16:31:21.050Z,98578.77
2023-03-05T16:34:22.728Z,98582.52
2023-03-05T16:37:25.509Z,98579.38
2023-03-05T16:40:44.272Z,98583.09
2023-03-05T16:43:50.254Z,98580.00
2023-03-05T16:46:52.055Z,98582.73
2023-03-05T16:49:53.669Z,98583.83
2023-03-05T16:52:55.422Z,98582.17
2023-03-05T16:55:57.003Z,98580.17
2023-03-05T16:58:58.685Z,98581.43
2023-03-05T17:02:00.447Z,98575.22
2023-03-05T17:05:02.681Z,98581.87
2023-03-05T17:08:04.796Z,98587.12
2023-03-05T17:11:06.246Z,98585.00
2023-03-05T17:14:08.147Z,98586.86
2023-03-05T17:17:09.942Z,98585.71
2023-03-05T17:20:11.963Z,98584.36
2023-03-05T17:23:13.536Z,98590.39
2023-03-05T17:26:18.537Z,98595.84
2023-03-05T17:29:20.131Z,98593.80
2023-03-05T17:32:22.018Z,98598.06
2023-03-05T17:35:23.836Z,98599.75
2023-03-05T17:38:25.564Z,98603.65
2023-03-05T17:41:27.335Z,98604.31
2023-03-05T17:44:28.964Z,98608.31
2023-03-05T17:47:30.628Z,98608.55
2023-03-05T17:50:32.177Z,98612.11
2023-03-05T17:53:34.604Z,98618.02
2023-03-05T17:56:36.164Z,98614.21
2023-03-05T17:59:37.838Z,98608.86
2023-03-05T18:02:39.894Z,98606.55
2023-03-05T18:05:41.496Z,98600.95
2023-03-05T18:08:43.217Z,98599.53
2023-03-05T18:11:44.803Z,98605.30
2023-03-05T18:14:46.429Z,98607.51
2023-03-05T18:17:48.153Z,98602.80
2023-03-05T18:20:49.758Z,98603.10
2023-03-05T18:23:51.924Z,98606.33
2023-03-05T18:26:53.426Z,98606.13
2023-03-05T18:29:55.290Z,98611.09
2023-03-05T18:32:57.875Z,98610.16
2023-03-05T18:35:59.585Z,98612.62
2023-03-05T18:39:01.149Z,98614.19
2023-03-05T18:42:02.880Z,98616.60
2023-03-05T18:45:06.352Z,98617.65
2023-03-05T18:48:07.987Z,98617.64
2023-03-05T18:51:14.673Z,98619.51
2023-03-05T18:54:16.366Z,98618.95
2023-03-05T18:57:17.965Z,98613.67
2023-03-05T19:00:22.653Z,98607.04
2023-03-05T19:03:24.311Z,98600.82
2023-03-05T19:06:26.023Z,98593.73
2023-03-05T19:09:27.718Z,98593.75
2023-03-05T19:12:29.950Z,98586.98
2023-03-05T19:15:31.945Z,98593.96
2023-03-05T19:18:34.239Z,98598.70
2023-03-05T19:21:36.456Z,98601.65
2023-03-05T19:24:38.196Z,98606.02
2023-03-05T19:27:40.153Z,98607.09
2023-03-05T19:30:41.848Z,98611.54
2023-03-05T19:33:43.822Z,98611.59
2023-03-05T19:36:45.377Z,98610.98
2023-03-05T19:39:47.030Z,98613.03
2023-03-05T19:42:48.732Z,98616.89
2023-03-05T19:45:50.317Z,98618.05
2023-03-05T19:48:52.020Z,98613.95
2023-03-05T19:51:53.614Z,98620.05
2023-03-05T19:54:55.132Z,98615.80
2023-03-05T19:57:56.782Z,98616.32
2023-03-05T20:01:11.393Z,98618.86
2023-03-05T20:04:16.288Z,98609.67
2023-03-05T20:07:18.178Z,98613.21
2023-03-05T20:10:19.942Z,98611.51
2023-03-05T20:13:21.589Z,98606.91
2023-03-05T20:16:28.971Z,98605.90
2023-03-05T20:19:30.570Z,98605.90
2023-03-05T20:22:32.533Z,98604.38
2023-03-05T20:25:34.290Z,98601.66
2023-03-05T20:28:35.914Z,98599.48
2023-03-05T20:31:38.207Z,98596.92
2023-03-05T20:34:39.796Z,98588.73
2023-03-05T20:37:41.891Z,98583.80
2023-03-05T20:40:43.478Z,98586.30
2023-03-05T20:43:47.840Z,98585.29
2023-03-05T20:46:49.500Z,98583.44
2023-03-05T20:49:54.168Z,98584.62
2023-03-05T20:52:55.727Z,98585.64
2023-03-05T20:55:57.252Z,98583.41
2023-03-05T20:58:59.949Z,98582.37
2023-03-05T21:02:01.611Z,98580.70
2023-03-05T21:05:03.319Z,98580.88
2023-03-05T21:08:05.257Z,98581.39
2023-03-05T21:11:08.568Z,98580.39
2023-03-05T21:14:10.192Z,98581.09
2023-03-05T21:17:12.310Z,98577.19
2023-03-05T21:20:17.788Z,98570.61
2023-03-05T21:23:19.369Z,98569.80
2023-03-05T21:26:21.334Z,98567.41
2023-03-05T21:29:22.993Z,98568.34
2023-03-05T21:32:24.779Z,98570.48
2023-03-05T21:35:26.873Z,98574.15
2023-03-05T21:38:28.656Z,98573.02
2023-03-05T21:41:30.125Z,98571.27
2023-03-05T21:44:31.773Z,98569.67
2023-03-05T21:47:33.927Z,98565.20
2023-03-05T21:50:39.399Z,98565.81
2023-03-05T21:53:40.937Z,98559.46
2023-03-05T21:56:42.596Z,98554.98
2023-03-05T21:59:44.206Z,98550.52
2023-03-05T22:02:48.892Z,98551.54
2023-03-05T22:05:50.484Z,98550.65
2023-03-05T22:08:52.026Z,98552.61
2023-03-05T22:11:53.725Z,98556.21
2023-03-05T22:14:55.732Z,98550.30
2023-03-05T22:17:57.318Z,98539.30
2023-03-05T22:20:59.562Z,98539.98
2023-03-05T22:24:01.168Z,98543.21
2023-03-05T22:27:02.777Z,98546.95
2023-03-05T22:30:04.773Z,98549.67
2023-03-05T22:33:06.293Z,98546.45
2023-03-05T22:36:10.065Z,98547.99
2023-03-05T22:39:11.707Z,98546.54
2023-03-05T22:42:13.343Z,98546.61
2023-03-05T22:45:16.432Z,98549.56
2023-03-05T22:48:18.062Z,98546.21
2023-03-05T22:51:20.195Z,98544.71
2023-03-05T22:54:21.886Z,98536.42
2023-03-05T22:57:23.694Z,98537.64
2023-03-05T23:00:25.196Z,98535.63
2023-03-05T23:03:27.017Z,98539.05
2023-03-05T23:06:29.027Z,98538.73
2023-03-05T23:09:30.633Z,98539.92
2023-03-05T23:12:35.455Z,98537.39
2023-03-05T23:15:38.281Z,98536.55
2023-03-05T23:18:39.887Z,98534.16
2023-03-05T23:21:41.429Z,98535.84
2023-03-05T23:24:43.106Z,98527.86
2023-03-05T23:27:44.768Z,98533.27
2023-03-05T23:30:46.461Z,98527.69
2023-03-05T23:33:48.168Z,98526.85
2023-03-05T23:36:49.778Z,98523.46
2023-03-05T23:39:51.368Z,98523.14
2023-03-05T23:42:53.438Z,98521.10
2023-03-05T23:45:56.118Z,98518.39
2023-03-05T23:48:57.732Z,98521.80
2023-03-05T23:51:59.284Z,98519.58
2023-03-05T23:55:00.941Z,98517.06
2023-03-05T23:58:03.408Z,98511.81
